sensor_id;sensor_type;location;lat;lon;timestamp;P1;durP1;ratioP1;P2;durP2;ratioP2
5959;SDS011;3006;50.956;7.002;2023-12-04T00:00:08;16.50;;;10.90;;
5959;SDS011;3006;50.956;7.002;2023-12-04T00:02:39;17.43;;;11.30;;
5959;SDS011;3006;50.956;7.002;2023-12-04T00:05:07;14.53;;;10.23;;
5959;SDS011;3006;50.956;7.002;2023-12-04T00:07:36;15.70;;;11.20;;
5959;SDS011;3006;50.956;7.002;2023-12-04T00:10:04;16.57;;;10.17;;
5959;SDS011;3006;50.956;7.002;2023-12-04T00:12:34;15.57;;;10.80;;
5959;SDS011;3006;50.956;7.002;2023-12-04T00:15:03;14.80;;;10.60;;
5959;SDS011;3006;50.956;7.002;2023-12-04T00:17:33;14.60;;;10.87;;
5959;SDS011;3006;50.956;7.002;2023-12-04T00:20:06;14.40;;;9.93;;
5959;SDS011;3006;50.956;7.002;2023-12-04T00:22:35;16.67;;;10.63;;
5959;SDS011;3006;50.956;7.002;2023-12-04T00:25:04;14.57;;;9.90;;
5959;SDS011;3006;50.956;7.002;2023-12-04T00:27:33;15.60;;;10.50;;
5959;SDS011;3006;50.956;7.002;2023-12-04T00:30:02;18.20;;;10.43;;
5959;SDS011;3006;50.956;7.002;2023-12-04T00:32:33;14.00;;;9.73;;
5959;SDS011;3006;50.956;7.002;2023-12-04T00:35:02;16.03;;;10.30;;
5959;SDS011;3006;50.956;7.002;2023-12-04T00:37:30;15.97;;;10.70;;
5959;SDS011;3006;50.956;7.002;2023-12-04T00:39:59;15.50;;;10.13;;
5959;SDS011;3006;50.956;7.002;2023-12-04T00:42:27;16.47;;;10.77;;
5959;SDS011;3006;50.956;7.002;2023-12-04T00:44:56;14.67;;;9.40;;
5959;SDS011;3006;50.956;7.002;2023-12-04T00:47:25;15.20;;;10.13;;
5959;SDS011;3006;50.956;7.002;2023-12-04T00:49:55;14.43;;;9.73;;
5959;SDS011;3006;50.956;7.002;2023-12-04T00:52:23;15.43;;;10.37;;
5959;SDS011;3006;50.956;7.002;2023-12-04T00:54:51;13.43;;;9.37;;
5959;SDS011;3006;50.956;7.002;2023-12-04T00:57:20;15.70;;;10.90;;
5959;SDS011;3006;50.956;7.002;2023-12-04T00:59:48;13.87;;;10.53;;
5959;SDS011;3006;50.956;7.002;2023-12-04T01:02:16;15.40;;;9.87;;
5959;SDS011;3006;50.956;7.002;2023-12-04T01:04:44;17.40;;;10.10;;
5959;SDS011;3006;50.956;7.002;2023-12-04T01:07:14;14.70;;;9.70;;
5959;SDS011;3006;50.956;7.002;2023-12-04T01:09:42;13.90;;;8.50;;
5959;SDS011;3006;50.956;7.002;2023-12-04T01:12:10;15.30;;;10.13;;
5959;SDS011;3006;50.956;7.002;2023-12-04T01:14:38;13.20;;;9.33;;
5959;SDS011;3006;50.956;7.002;2023-12-04T01:17:06;14.23;;;9.53;;
5959;SDS011;3006;50.956;7.002;2023-12-04T01:19:35;15.07;;;9.87;;
5959;SDS011;3006;50.956;7.002;2023-12-04T01:22:03;15.10;;;9.77;;
5959;SDS011;3006;50.956;7.002;2023-12-04T01:24:34;15.50;;;10.30;;
5959;SDS011;3006;50.956;7.002;2023-12-04T01:27:02;16.50;;;10.67;;
5959;SDS011;3006;50.956;7.002;2023-12-04T01:29:30;17.63;;;10.80;;
5959;SDS011;3006;50.956;7.002;2023-12-04T01:31:59;15.20;;;9.63;;
5959;SDS011;3006;50.956;7.002;2023-12-04T01:34:27;14.40;;;10.57;;
5959;SDS011;3006;50.956;7.002;2023-12-04T01:36:55;13.17;;;9.03;;
5959;SDS011;3006;50.956;7.002;2023-12-04T01:39:24;13.33;;;9.83;;
5959;SDS011;3006;50.956;7.002;2023-12-04T01:41:54;15.47;;;10.03;;
5959;SDS011;3006;50.956;7.002;2023-12-04T01:44:22;14.67;;;9.60;;
5959;SDS011;3006;50.956;7.002;2023-12-04T01:46:51;15.63;;;10.10;;
5959;SDS011;3006;50.956;7.002;2023-12-04T01:49:19;15.00;;;9.93;;
5959;SDS011;3006;50.956;7.002;2023-12-04T01:51:48;12.90;;;9.07;;
5959;SDS011;3006;50.956;7.002;2023-12-04T01:54:16;14.40;;;9.57;;
5959;SDS011;3006;50.956;7.002;2023-12-04T01:56:45;14.37;;;8.73;;
5959;SDS011;3006;50.956;7.002;2023-12-04T01:59:15;14.90;;;9.77;;
5959;SDS011;3006;50.956;7.002;2023-12-04T02:01:44;14.90;;;9.60;;
5959;SDS011;3006;50.956;7.002;2023-12-04T02:04:12;14.37;;;10.20;;
5959;SDS011;3006;50.956;7.002;2023-12-04T02:06:40;12.57;;;8.80;;
5959;SDS011;3006;50.956;7.002;2023-12-04T02:09:09;12.93;;;8.93;;
5959;SDS011;3006;50.956;7.002;2023-12-04T02:11:39;13.87;;;8.80;;
5959;SDS011;3006;50.956;7.002;2023-12-04T02:14:07;12.83;;;8.47;;
5959;SDS011;3006;50.956;7.002;2023-12-04T02:16:38;14.40;;;9.57;;
5959;SDS011;3006;50.956;7.002;2023-12-04T02:19:09;13.43;;;9.43;;
5959;SDS011;3006;50.956;7.002;2023-12-04T02:21:40;13.73;;;9.90;;
5959;SDS011;3006;50.956;7.002;2023-12-04T02:24:09;15.83;;;10.67;;
5959;SDS011;3006;50.956;7.002;2023-12-04T02:26:39;12.17;;;8.90;;
5959;SDS011;3006;50.956;7.002;2023-12-04T02:29:14;14.80;;;10.23;;
5959;SDS011;3006;50.956;7.002;2023-12-04T02:31:46;14.13;;;9.40;;
5959;SDS011;3006;50.956;7.002;2023-12-04T02:34:16;13.13;;;9.43;;
5959;SDS011;3006;50.956;7.002;2023-12-04T02:36:46;14.43;;;9.60;;
5959;SDS011;3006;50.956;7.002;2023-12-04T02:39:17;10.97;;;8.60;;
5959;SDS011;3006;50.956;7.002;2023-12-04T02:41:45;12.93;;;8.60;;
5959;SDS011;3006;50.956;7.002;2023-12-04T02:44:13;12.00;;;10.07;;
5959;SDS011;3006;50.956;7.002;2023-12-04T02:46:41;14.40;;;10.07;;
5959;SDS011;3006;50.956;7.002;2023-12-04T02:49:10;13.23;;;8.83;;
5959;SDS011;3006;50.956;7.002;2023-12-04T02:51:40;16.23;;;9.60;;
5959;SDS011;3006;50.956;7.002;2023-12-04T02:54:08;14.53;;;9.80;;
5959;SDS011;3006;50.956;7.002;2023-12-04T02:56:37;12.70;;;8.70;;
5959;SDS011;3006;50.956;7.002;2023-12-04T02:59:06;15.87;;;8.50;;
5959;SDS011;3006;50.956;7.002;2023-12-04T03:01:34;13.43;;;8.63;;
5959;SDS011;3006;50.956;7.002;2023-12-04T03:04:02;13.47;;;9.50;;
5959;SDS011;3006;50.956;7.002;2023-12-04T03:06:30;14.57;;;9.40;;
5959;SDS011;3006;50.956;7.002;2023-12-04T03:08:59;12.80;;;9.13;;
5959;SDS011;3006;50.956;7.002;2023-12-04T03:11:27;12.20;;;9.17;;
5959;SDS011;3006;50.956;7.002;2023-12-04T03:13:57;16.90;;;9.07;;
5959;SDS011;3006;50.956;7.002;2023-12-04T03:16:27;11.03;;;8.90;;
5959;SDS011;3006;50.956;7.002;2023-12-04T03:18:55;11.60;;;8.23;;
5959;SDS011;3006;50.956;7.002;2023-12-04T03:21:24;10.50;;;8.27;;
5959;SDS011;3006;50.956;7.002;2023-12-04T03:23:52;12.57;;;9.20;;
5959;SDS011;3006;50.956;7.002;2023-12-04T03:26:20;19.00;;;9.63;;
5959;SDS011;3006;50.956;7.002;2023-12-04T03:28:48;11.00;;;8.50;;
5959;SDS011;3006;50.956;7.002;2023-12-04T03:31:18;15.53;;;9.23;;
5959;SDS011;3006;50.956;7.002;2023-12-04T03:33:46;10.83;;;8.20;;
5959;SDS011;3006;50.956;7.002;2023-12-04T03:36:14;14.30;;;9.50;;
5959;SDS011;3006;50.956;7.002;2023-12-04T03:38:42;12.57;;;7.90;;
5959;SDS011;3006;50.956;7.002;2023-12-04T03:41:13;12.23;;;8.80;;
5959;SDS011;3006;50.956;7.002;2023-12-04T03:43:41;13.37;;;9.10;;
5959;SDS011;3006;50.956;7.002;2023-12-04T03:46:10;15.57;;;9.17;;
5959;SDS011;3006;50.956;7.002;2023-12-04T03:48:39;13.87;;;8.93;;
5959;SDS011;3006;50.956;7.002;2023-12-04T03:51:08;14.10;;;9.50;;
5959;SDS011;3006;50.956;7.002;2023-12-04T03:53:36;13.87;;;9.97;;
5959;SDS011;3006;50.956;7.002;2023-12-04T03:56:04;14.00;;;10.00;;
5959;SDS011;3006;50.956;7.002;2023-12-04T03:58:33;16.10;;;9.73;;
5959;SDS011;3006;50.956;7.002;2023-12-04T04:01:01;12.70;;;9.10;;
5959;SDS011;3006;50.956;7.002;2023-12-04T04:03:29;12.50;;;9.43;;
5959;SDS011;3006;50.956;7.002;2023-12-04T04:05:59;12.03;;;9.37;;
5959;SDS011;3006;50.956;7.002;2023-12-04T04:08:27;14.20;;;9.60;;
5959;SDS011;3006;50.956;7.002;2023-12-04T04:10:55;13.67;;;9.40;;
5959;SDS011;3006;50.956;7.002;2023-12-04T04:13:23;14.60;;;9.87;;
5959;SDS011;3006;50.956;7.002;2023-12-04T04:15:51;14.30;;;9.13;;
5959;SDS011;3006;50.956;7.002;2023-12-04T04:18:20;13.00;;;9.60;;
5959;SDS011;3006;50.956;7.002;2023-12-04T04:20:48;16.80;;;10.73;;
5959;SDS011;3006;50.956;7.002;2023-12-04T04:23:18;16.07;;;10.47;;
5959;SDS011;3006;50.956;7.002;2023-12-04T04:25:46;12.40;;;9.17;;
5959;SDS011;3006;50.956;7.002;2023-12-04T04:28:14;14.40;;;10.43;;
5959;SDS011;3006;50.956;7.002;2023-12-04T04:30:42;14.23;;;10.20;;
5959;SDS011;3006;50.956;7.002;2023-12-04T04:33:10;14.07;;;9.10;;
5959;SDS011;3006;50.956;7.002;2023-12-04T04:35:39;14.43;;;9.83;;
5959;SDS011;3006;50.956;7.002;2023-12-04T04:38:07;13.80;;;10.00;;
5959;SDS011;3006;50.956;7.002;2023-12-04T04:40:36;13.23;;;9.50;;
5959;SDS011;3006;50.956;7.002;2023-12-04T04:43:09;13.13;;;9.97;;
5959;SDS011;3006;50.956;7.002;2023-12-04T04:45:38;15.63;;;9.90;;
5959;SDS011;3006;50.956;7.002;2023-12-04T04:48:06;14.17;;;9.80;;
5959;SDS011;3006;50.956;7.002;2023-12-04T04:50:34;13.40;;;9.57;;
5959;SDS011;3006;50.956;7.002;2023-12-04T04:53:02;16.90;;;10.07;;
5959;SDS011;3006;50.956;7.002;2023-12-04T04:55:30;13.37;;;9.10;;
5959;SDS011;3006;50.956;7.002;2023-12-04T04:58:15;14.20;;;9.70;;
5959;SDS011;3006;50.956;7.002;2023-12-04T05:00:44;16.20;;;10.97;;
5959;SDS011;3006;50.956;7.002;2023-12-04T05:03:13;13.87;;;10.13;;
5959;SDS011;3006;50.956;7.002;2023-12-04T05:05:42;13.30;;;9.37;;
5959;SDS011;3006;50.956;7.002;2023-12-04T05:08:10;12.10;;;9.47;;
5959;SDS011;3006;50.956;7.002;2023-12-04T05:10:38;14.40;;;10.23;;
5959;SDS011;3006;50.956;7.002;2023-12-04T05:13:07;15.57;;;10.60;;
5959;SDS011;3006;50.956;7.002;2023-12-04T05:15:37;14.50;;;10.40;;
5959;SDS011;3006;50.956;7.002;2023-12-04T05:18:05;15.07;;;9.83;;
5959;SDS011;3006;50.956;7.002;2023-12-04T05:20:33;16.67;;;11.60;;
5959;SDS011;3006;50.956;7.002;2023-12-04T05:23:01;14.37;;;10.03;;
5959;SDS011;3006;50.956;7.002;2023-12-04T05:25:29;15.23;;;10.40;;
5959;SDS011;3006;50.956;7.002;2023-12-04T05:28:06;17.43;;;11.13;;
5959;SDS011;3006;50.956;7.002;2023-12-04T05:30:36;18.40;;;11.67;;
5959;SDS011;3006;50.956;7.002;2023-12-04T05:33:04;16.40;;;11.97;;
5959;SDS011;3006;50.956;7.002;2023-12-04T05:35:33;17.53;;;12.43;;
5959;SDS011;3006;50.956;7.002;2023-12-04T05:38:02;14.87;;;10.90;;
5959;SDS011;3006;50.956;7.002;2023-12-04T05:40:30;15.40;;;10.60;;
5959;SDS011;3006;50.956;7.002;2023-12-04T05:42:58;16.33;;;11.70;;
5959;SDS011;3006;50.956;7.002;2023-12-04T05:45:27;15.60;;;11.23;;
5959;SDS011;3006;50.956;7.002;2023-12-04T05:47:56;17.57;;;11.83;;
5959;SDS011;3006;50.956;7.002;2023-12-04T05:50:25;15.93;;;12.50;;
5959;SDS011;3006;50.956;7.002;2023-12-04T05:52:53;19.70;;;11.40;;
5959;SDS011;3006;50.956;7.002;2023-12-04T05:55:21;14.40;;;10.80;;
5959;SDS011;3006;50.956;7.002;2023-12-04T05:57:49;19.10;;;12.10;;
5959;SDS011;3006;50.956;7.002;2023-12-04T06:00:18;19.30;;;12.10;;
5959;SDS011;3006;50.956;7.002;2023-12-04T06:02:52;19.53;;;12.93;;
5959;SDS011;3006;50.956;7.002;2023-12-04T06:05:21;16.47;;;11.30;;
5959;SDS011;3006;50.956;7.002;2023-12-04T06:07:50;17.67;;;11.33;;
5959;SDS011;3006;50.956;7.002;2023-12-04T06:10:18;16.93;;;12.30;;
5959;SDS011;3006;50.956;7.002;2023-12-04T06:12:46;14.53;;;10.80;;
5959;SDS011;3006;50.956;7.002;2023-12-04T06:15:14;17.97;;;12.47;;
5959;SDS011;3006;50.956;7.002;2023-12-04T06:17:42;16.20;;;12.27;;
5959;SDS011;3006;50.956;7.002;2023-12-04T06:20:11;20.07;;;12.13;;
5959;SDS011;3006;50.956;7.002;2023-12-04T06:22:41;17.13;;;11.60;;
5959;SDS011;3006;50.956;7.002;2023-12-04T06:25:10;16.77;;;11.53;;
5959;SDS011;3006;50.956;7.002;2023-12-04T06:27:39;17.20;;;12.17;;
5959;SDS011;3006;50.956;7.002;2023-12-04T06:30:08;17.03;;;12.70;;
5959;SDS011;3006;50.956;7.002;2023-12-04T06:32:37;17.60;;;11.40;;
5959;SDS011;3006;50.956;7.002;2023-12-04T06:35:06;18.10;;;11.70;;
5959;SDS011;3006;50.956;7.002;2023-12-04T06:37:36;16.30;;;11.43;;
5959;SDS011;3006;50.956;7.002;2023-12-04T06:40:08;19.13;;;12.47;;
5959;SDS011;3006;50.956;7.002;2023-12-04T06:42:38;16.70;;;11.93;;
5959;SDS011;3006;50.956;7.002;2023-12-04T06:45:07;15.70;;;10.93;;
5959;SDS011;3006;50.956;7.002;2023-12-04T06:47:36;15.80;;;11.13;;
5959;SDS011;3006;50.956;7.002;2023-12-04T06:50:07;18.33;;;11.90;;
5959;SDS011;3006;50.956;7.002;2023-12-04T06:52:36;17.50;;;11.30;;
5959;SDS011;3006;50.956;7.002;2023-12-04T06:55:04;15.87;;;11.20;;
5959;SDS011;3006;50.956;7.002;2023-12-04T06:57:34;15.50;;;11.90;;
5959;SDS011;3006;50.956;7.002;2023-12-04T07:00:03;17.33;;;12.13;;
5959;SDS011;3006;50.956;7.002;2023-12-04T07:02:47;16.20;;;10.77;;
5959;SDS011;3006;50.956;7.002;2023-12-04T07:05:16;16.23;;;11.40;;
5959;SDS011;3006;50.956;7.002;2023-12-04T07:07:45;16.87;;;10.97;;
5959;SDS011;3006;50.956;7.002;2023-12-04T07:10:13;16.63;;;11.20;;
5959;SDS011;3006;50.956;7.002;2023-12-04T07:12:43;15.33;;;11.00;;
5959;SDS011;3006;50.956;7.002;2023-12-04T07:15:12;16.03;;;10.93;;
5959;SDS011;3006;50.956;7.002;2023-12-04T07:17:40;15.37;;;10.60;;
5959;SDS011;3006;50.956;7.002;2023-12-04T07:20:09;14.03;;;10.10;;
5959;SDS011;3006;50.956;7.002;2023-12-04T07:22:39;14.73;;;9.90;;
5959;SDS011;3006;50.956;7.002;2023-12-04T07:25:07;18.23;;;11.77;;
5959;SDS011;3006;50.956;7.002;2023-12-04T07:27:36;18.57;;;11.53;;
5959;SDS011;3006;50.956;7.002;2023-12-04T07:30:07;13.97;;;9.70;;
5959;SDS011;3006;50.956;7.002;2023-12-04T07:32:35;13.13;;;9.30;;
5959;SDS011;3006;50.956;7.002;2023-12-04T07:35:04;13.50;;;9.27;;
5959;SDS011;3006;50.956;7.002;2023-12-04T07:37:33;13.53;;;9.90;;
5959;SDS011;3006;50.956;7.002;2023-12-04T07:40:02;13.87;;;10.20;;
5959;SDS011;3006;50.956;7.002;2023-12-04T07:42:32;13.33;;;10.47;;
5959;SDS011;3006;50.956;7.002;2023-12-04T07:45:00;12.80;;;9.13;;
5959;SDS011;3006;50.956;7.002;2023-12-04T07:47:30;11.83;;;9.47;;
5959;SDS011;3006;50.956;7.002;2023-12-04T07:49:57;24.60;;;13.93;;
5959;SDS011;3006;50.956;7.002;2023-12-04T07:52:26;12.27;;;8.87;;
5959;SDS011;3006;50.956;7.002;2023-12-04T07:54:55;13.73;;;9.70;;
5959;SDS011;3006;50.956;7.002;2023-12-04T07:57:23;11.30;;;9.13;;
5959;SDS011;3006;50.956;7.002;2023-12-04T07:59:51;12.20;;;9.30;;
5959;SDS011;3006;50.956;7.002;2023-12-04T08:02:19;12.23;;;9.00;;
5959;SDS011;3006;50.956;7.002;2023-12-04T08:04:49;13.73;;;9.77;;
5959;SDS011;3006;50.956;7.002;2023-12-04T08:07:17;12.10;;;8.60;;
5959;SDS011;3006;50.956;7.002;2023-12-04T08:09:45;13.23;;;9.30;;
5959;SDS011;3006;50.956;7.002;2023-12-04T08:12:14;14.13;;;9.30;;
5959;SDS011;3006;50.956;7.002;2023-12-04T08:14:45;12.10;;;9.03;;
5959;SDS011;3006;50.956;7.002;2023-12-04T08:17:14;11.30;;;8.80;;
5959;SDS011;3006;50.956;7.002;2023-12-04T08:19:42;12.47;;;9.10;;
5959;SDS011;3006;50.956;7.002;2023-12-04T08:22:15;13.60;;;9.30;;
5959;SDS011;3006;50.956;7.002;2023-12-04T08:24:44;14.73;;;9.83;;
5959;SDS011;3006;50.956;7.002;2023-12-04T08:27:12;11.90;;;9.50;;
5959;SDS011;3006;50.956;7.002;2023-12-04T08:29:40;13.80;;;10.00;;
5959;SDS011;3006;50.956;7.002;2023-12-04T08:32:08;11.80;;;8.57;;
5959;SDS011;3006;50.956;7.002;2023-12-04T08:34:37;14.23;;;9.43;;
5959;SDS011;3006;50.956;7.002;2023-12-04T08:37:05;11.70;;;8.90;;
5959;SDS011;3006;50.956;7.002;2023-12-04T08:39:35;13.67;;;8.70;;
5959;SDS011;3006;50.956;7.002;2023-12-04T08:42:04;12.70;;;9.50;;
5959;SDS011;3006;50.956;7.002;2023-12-04T08:44:42;12.70;;;8.63;;
5959;SDS011;3006;50.956;7.002;2023-12-04T08:47:12;13.20;;;9.23;;
5959;SDS011;3006;50.956;7.002;2023-12-04T08:49:40;14.20;;;10.00;;
5959;SDS011;3006;50.956;7.002;2023-12-04T08:52:14;14.30;;;10.03;;
5959;SDS011;3006;50.956;7.002;2023-12-04T08:54:44;12.13;;;8.93;;
5959;SDS011;3006;50.956;7.002;2023-12-04T08:57:12;12.17;;;8.80;;
5959;SDS011;3006;50.956;7.002;2023-12-04T08:59:41;12.20;;;9.80;;
5959;SDS011;3006;50.956;7.002;2023-12-04T09:02:09;12.90;;;8.63;;
5959;SDS011;3006;50.956;7.002;2023-12-04T09:04:40;11.57;;;8.80;;
5959;SDS011;3006;50.956;7.002;2023-12-04T09:07:08;12.87;;;8.60;;
5959;SDS011;3006;50.956;7.002;2023-12-04T09:09:59;11.30;;;8.37;;
5959;SDS011;3006;50.956;7.002;2023-12-04T09:12:36;13.13;;;9.30;;
5959;SDS011;3006;50.956;7.002;2023-12-04T09:15:04;14.13;;;8.73;;
5959;SDS011;3006;50.956;7.002;2023-12-04T09:17:35;14.20;;;9.67;;
5959;SDS011;3006;50.956;7.002;2023-12-04T09:20:07;12.43;;;8.83;;
5959;SDS011;3006;50.956;7.002;2023-12-04T09:22:36;14.37;;;8.90;;
5959;SDS011;3006;50.956;7.002;2023-12-04T09:25:19;11.00;;;8.10;;
5959;SDS011;3006;50.956;7.002;2023-12-04T09:27:47;14.13;;;8.20;;
5959;SDS011;3006;50.956;7.002;2023-12-04T09:30:16;15.47;;;9.57;;
5959;SDS011;3006;50.956;7.002;2023-12-04T09:32:44;12.77;;;8.40;;
5959;SDS011;3006;50.956;7.002;2023-12-04T09:35:12;12.97;;;8.87;;
5959;SDS011;3006;50.956;7.002;2023-12-04T09:37:41;11.40;;;8.60;;
5959;SDS011;3006;50.956;7.002;2023-12-04T09:40:10;11.33;;;8.37;;
5959;SDS011;3006;50.956;7.002;2023-12-04T09:42:40;13.03;;;9.27;;
5959;SDS011;3006;50.956;7.002;2023-12-04T09:45:09;11.00;;;8.43;;
5959;SDS011;3006;50.956;7.002;2023-12-04T09:47:39;12.20;;;7.90;;
5959;SDS011;3006;50.956;7.002;2023-12-04T09:50:08;12.00;;;7.93;;
5959;SDS011;3006;50.956;7.002;2023-12-04T09:52:37;11.30;;;7.60;;
5959;SDS011;3006;50.956;7.002;2023-12-04T09:55:06;13.30;;;8.33;;
5959;SDS011;3006;50.956;7.002;2023-12-04T09:57:34;11.30;;;8.80;;
5959;SDS011;3006;50.956;7.002;2023-12-04T10:00:05;12.07;;;8.23;;
5959;SDS011;3006;50.956;7.002;2023-12-04T10:02:37;11.30;;;7.90;;
5959;SDS011;3006;50.956;7.002;2023-12-04T10:05:07;10.97;;;7.83;;
5959;SDS011;3006;50.956;7.002;2023-12-04T10:07:36;11.93;;;9.23;;
5959;SDS011;3006;50.956;7.002;2023-12-04T10:10:06;10.83;;;8.23;;
5959;SDS011;3006;50.956;7.002;2023-12-04T10:12:35;12.03;;;8.40;;
5959;SDS011;3006;50.956;7.002;2023-12-04T10:15:07;14.60;;;9.40;;
5959;SDS011;3006;50.956;7.002;2023-12-04T10:17:37;11.47;;;8.20;;
5959;SDS011;3006;50.956;7.002;2023-12-04T10:20:08;16.70;;;8.17;;
5959;SDS011;3006;50.956;7.002;2023-12-04T10:22:54;12.23;;;8.87;;
5959;SDS011;3006;50.956;7.002;2023-12-04T10:25:23;12.50;;;8.77;;
5959;SDS011;3006;50.956;7.002;2023-12-04T10:27:54;13.17;;;8.77;;
5959;SDS011;3006;50.956;7.002;2023-12-04T10:30:35;13.93;;;8.50;;
5959;SDS011;3006;50.956;7.002;2023-12-04T10:33:04;10.40;;;7.90;;
5959;SDS011;3006;50.956;7.002;2023-12-04T10:35:35;9.83;;;7.97;;
5959;SDS011;3006;50.956;7.002;2023-12-04T10:38:04;12.90;;;8.73;;
5959;SDS011;3006;50.956;7.002;2023-12-04T10:40:34;12.50;;;8.43;;
5959;SDS011;3006;50.956;7.002;2023-12-04T10:43:10;12.50;;;7.67;;
5959;SDS011;3006;50.956;7.002;2023-12-04T10:45:41;12.27;;;9.07;;
5959;SDS011;3006;50.956;7.002;2023-12-04T10:48:10;12.93;;;9.23;;
5959;SDS011;3006;50.956;7.002;2023-12-04T10:50:40;10.63;;;7.70;;
5959;SDS011;3006;50.956;7.002;2023-12-04T10:53:10;11.67;;;9.10;;
5959;SDS011;3006;50.956;7.002;2023-12-04T10:55:40;12.97;;;8.30;;
5959;SDS011;3006;50.956;7.002;2023-12-04T10:58:09;12.03;;;8.70;;
5959;SDS011;3006;50.956;7.002;2023-12-04T11:00:38;10.33;;;7.80;;
5959;SDS011;3006;50.956;7.002;2023-12-04T11:03:13;13.60;;;8.53;;
5959;SDS011;3006;50.956;7.002;2023-12-04T11:05:45;10.10;;;7.70;;
5959;SDS011;3006;50.956;7.002;2023-12-04T11:08:19;12.23;;;8.03;;
5959;SDS011;3006;50.956;7.002;2023-12-04T11:10:50;13.30;;;9.17;;
5959;SDS011;3006;50.956;7.002;2023-12-04T11:13:23;11.67;;;8.27;;
5959;SDS011;3006;50.956;7.002;2023-12-04T11:16:02;13.03;;;9.07;;
5959;SDS011;3006;50.956;7.002;2023-12-04T11:18:35;10.70;;;8.03;;
5959;SDS011;3006;50.956;7.002;2023-12-04T11:21:07;13.87;;;9.00;;
5959;SDS011;3006;50.956;7.002;2023-12-04T11:23:36;12.20;;;8.77;;
5959;SDS011;3006;50.956;7.002;2023-12-04T11:26:06;11.13;;;8.73;;
5959;SDS011;3006;50.956;7.002;2023-12-04T11:28:36;13.20;;;9.10;;
5959;SDS011;3006;50.956;7.002;2023-12-04T11:31:07;13.20;;;9.07;;
5959;SDS011;3006;50.956;7.002;2023-12-04T11:33:36;11.20;;;8.63;;
5959;SDS011;3006;50.956;7.002;2023-12-04T11:36:06;15.53;;;10.37;;
5959;SDS011;3006;50.956;7.002;2023-12-04T11:38:43;14.60;;;9.57;;
5959;SDS011;3006;50.956;7.002;2023-12-04T11:41:15;13.07;;;9.97;;
5959;SDS011;3006;50.956;7.002;2023-12-04T11:43:50;17.10;;;10.07;;
5959;SDS011;3006;50.956;7.002;2023-12-04T11:46:21;17.60;;;10.20;;
5959;SDS011;3006;50.956;7.002;2023-12-04T11:48:50;12.20;;;9.27;;
5959;SDS011;3006;50.956;7.002;2023-12-04T11:54:17;13.60;;;9.00;;
5959;SDS011;3006;50.956;7.002;2023-12-04T11:56:59;11.63;;;8.73;;
5959;SDS011;3006;50.956;7.002;2023-12-04T11:59:46;13.93;;;9.40;;
5959;SDS011;3006;50.956;7.002;2023-12-04T12:02:16;12.93;;;9.30;;
5959;SDS011;3006;50.956;7.002;2023-12-04T12:04:45;14.17;;;9.43;;
5959;SDS011;3006;50.956;7.002;2023-12-04T12:07:14;13.97;;;9.63;;
5959;SDS011;3006;50.956;7.002;2023-12-04T12:09:42;14.40;;;9.30;;
5959;SDS011;3006;50.956;7.002;2023-12-04T12:12:11;14.23;;;9.40;;
5959;SDS011;3006;50.956;7.002;2023-12-04T12:14:41;13.33;;;8.80;;
5959;SDS011;3006;50.956;7.002;2023-12-04T12:17:09;12.87;;;9.53;;
5959;SDS011;3006;50.956;7.002;2023-12-04T12:19:38;13.23;;;9.87;;
5959;SDS011;3006;50.956;7.002;2023-12-04T12:22:07;13.00;;;9.10;;
5959;SDS011;3006;50.956;7.002;2023-12-04T12:24:35;13.23;;;9.30;;
5959;SDS011;3006;50.956;7.002;2023-12-04T12:27:04;13.00;;;9.00;;
5959;SDS011;3006;50.956;7.002;2023-12-04T12:29:33;13.40;;;9.60;;
5959;SDS011;3006;50.956;7.002;2023-12-04T12:32:02;12.20;;;9.47;;
5959;SDS011;3006;50.956;7.002;2023-12-04T12:34:31;14.13;;;9.70;;
5959;SDS011;3006;50.956;7.002;2023-12-04T12:37:04;15.20;;;9.97;;
5959;SDS011;3006;50.956;7.002;2023-12-04T12:39:32;14.20;;;10.93;;
5959;SDS011;3006;50.956;7.002;2023-12-04T12:42:01;12.87;;;9.23;;
5959;SDS011;3006;50.956;7.002;2023-12-04T12:44:36;16.83;;;9.33;;
5959;SDS011;3006;50.956;7.002;2023-12-04T12:47:06;14.80;;;9.83;;
5959;SDS011;3006;50.956;7.002;2023-12-04T12:49:35;12.97;;;9.30;;
5959;SDS011;3006;50.956;7.002;2023-12-04T12:52:09;13.73;;;9.50;;
5959;SDS011;3006;50.956;7.002;2023-12-04T12:54:38;14.90;;;9.73;;
5959;SDS011;3006;50.956;7.002;2023-12-04T12:57:07;12.60;;;9.47;;
5959;SDS011;3006;50.956;7.002;2023-12-04T12:59:36;13.47;;;9.83;;
5959;SDS011;3006;50.956;7.002;2023-12-04T13:02:05;13.40;;;9.60;;
5959;SDS011;3006;50.956;7.002;2023-12-04T13:04:34;14.23;;;10.07;;
5959;SDS011;3006;50.956;7.002;2023-12-04T13:07:03;15.40;;;9.83;;
5959;SDS011;3006;50.956;7.002;2023-12-04T13:09:34;13.50;;;9.57;;
5959;SDS011;3006;50.956;7.002;2023-12-04T13:12:03;12.50;;;8.90;;
5959;SDS011;3006;50.956;7.002;2023-12-04T13:14:33;12.07;;;8.40;;
5959;SDS011;3006;50.956;7.002;2023-12-04T13:17:02;12.70;;;8.43;;
5959;SDS011;3006;50.956;7.002;2023-12-04T13:19:31;12.83;;;8.57;;
5959;SDS011;3006;50.956;7.002;2023-12-04T13:22:01;16.20;;;9.50;;
5959;SDS011;3006;50.956;7.002;2023-12-04T13:24:31;15.00;;;8.73;;
5959;SDS011;3006;50.956;7.002;2023-12-04T13:27:00;15.83;;;9.40;;
5959;SDS011;3006;50.956;7.002;2023-12-04T13:29:28;11.53;;;8.43;;
5959;SDS011;3006;50.956;7.002;2023-12-04T13:31:57;10.57;;;8.07;;
5959;SDS011;3006;50.956;7.002;2023-12-04T13:34:25;14.53;;;8.47;;
5959;SDS011;3006;50.956;7.002;2023-12-04T13:36:54;11.63;;;8.90;;
5959;SDS011;3006;50.956;7.002;2023-12-04T13:39:24;12.73;;;9.43;;
5959;SDS011;3006;50.956;7.002;2023-12-04T13:42:06;13.57;;;9.20;;
5959;SDS011;3006;50.956;7.002;2023-12-04T13:44:52;12.10;;;8.87;;
5959;SDS011;3006;50.956;7.002;2023-12-04T13:47:20;12.60;;;8.40;;
5959;SDS011;3006;50.956;7.002;2023-12-04T13:49:48;12.13;;;8.70;;
5959;SDS011;3006;50.956;7.002;2023-12-04T13:52:17;11.23;;;8.20;;
5959;SDS011;3006;50.956;7.002;2023-12-04T13:54:49;13.70;;;9.37;;
5959;SDS011;3006;50.956;7.002;2023-12-04T13:57:22;14.50;;;7.80;;
5959;SDS011;3006;50.956;7.002;2023-12-04T13:59:54;11.13;;;8.23;;
5959;SDS011;3006;50.956;7.002;2023-12-04T14:02:23;9.93;;;7.90;;
5959;SDS011;3006;50.956;7.002;2023-12-04T14:04:52;10.30;;;7.67;;
5959;SDS011;3006;50.956;7.002;2023-12-04T14:07:20;10.13;;;7.73;;
5959;SDS011;3006;50.956;7.002;2023-12-04T14:09:50;10.70;;;7.67;;
5959;SDS011;3006;50.956;7.002;2023-12-04T14:12:18;9.97;;;7.80;;
5959;SDS011;3006;50.956;7.002;2023-12-04T14:14:47;10.43;;;7.23;;
5959;SDS011;3006;50.956;7.002;2023-12-04T14:17:17;10.00;;;7.43;;
5959;SDS011;3006;50.956;7.002;2023-12-04T14:19:45;9.50;;;7.63;;
5959;SDS011;3006;50.956;7.002;2023-12-04T14:22:13;10.77;;;7.73;;
5959;SDS011;3006;50.956;7.002;2023-12-04T14:24:41;8.63;;;6.77;;
5959;SDS011;3006;50.956;7.002;2023-12-04T14:27:09;11.00;;;7.43;;
5959;SDS011;3006;50.956;7.002;2023-12-04T14:29:37;10.50;;;6.80;;
5959;SDS011;3006;50.956;7.002;2023-12-04T14:32:08;10.60;;;7.40;;
5959;SDS011;3006;50.956;7.002;2023-12-04T14:34:36;8.00;;;7.20;;
5959;SDS011;3006;50.956;7.002;2023-12-04T14:37:04;15.07;;;7.30;;
5959;SDS011;3006;50.956;7.002;2023-12-04T14:39:35;11.73;;;7.60;;
5959;SDS011;3006;50.956;7.002;2023-12-04T14:42:03;9.30;;;7.17;;
5959;SDS011;3006;50.956;7.002;2023-12-04T14:44:32;9.90;;;7.30;;
5959;SDS011;3006;50.956;7.002;2023-12-04T14:47:00;9.00;;;6.73;;
5959;SDS011;3006;50.956;7.002;2023-12-04T14:49:32;8.60;;;6.43;;
5959;SDS011;3006;50.956;7.002;2023-12-04T14:52:01;9.13;;;7.47;;
5959;SDS011;3006;50.956;7.002;2023-12-04T14:54:31;8.23;;;6.47;;
5959;SDS011;3006;50.956;7.002;2023-12-04T14:57:18;8.30;;;6.57;;
5959;SDS011;3006;50.956;7.002;2023-12-04T15:00:15;10.80;;;6.17;;
5959;SDS011;3006;50.956;7.002;2023-12-04T15:02:57;7.83;;;6.03;;
5959;SDS011;3006;50.956;7.002;2023-12-04T15:05:41;9.50;;;7.10;;
5959;SDS011;3006;50.956;7.002;2023-12-04T15:08:48;8.97;;;6.90;;
5959;SDS011;3006;50.956;7.002;2023-12-04T15:11:42;7.43;;;6.50;;
5959;SDS011;3006;50.956;7.002;2023-12-04T15:14:34;8.80;;;6.00;;
5959;SDS011;3006;50.956;7.002;2023-12-04T15:17:09;9.00;;;6.47;;